Time;durP1;ratioP1;P1;durP2;ratioP2;P2;SDS_P1;SDS_P2;PMS_P1;PMS_P2;Temp;Humidity;BMP_temperature;BMP_pressure;BME280_temperature;BME280_humidity;BME280_pressure;Samples;Min_cycle;Max_cycle;Signal;HPM_P1;HPM_P2
2023/04/08 00:00:11;;;;;;;;;12.00;11.60;;;;;6.43;77.92;100417.28;5098800;28;8850;-59
2023/04/08 00:02:39;;;;;;;;;14.20;14.20;;;;;6.43;77.86;100412.00;5098715;28;8838;-60
2023/04/08 00:05:08;;;;;;;;;15.00;13.80;;;;;6.46;77.51;100413.63;5099093;28;8826;-58
2023/04/08 00:07:36;;;;;;;;;9.40;7.80;;;;;6.46;77.70;100405.69;5098985;28;8818;-59
2023/04/08 00:10:03;;;;;;;;;10.40;10.40;;;;;6.46;77.55;100414.47;5098872;28;8830;-58
2023/04/08 00:12:31;;;;;;;;;11.60;10.40;;;;;6.46;77.53;100413.63;5097848;28;8841;-58
2023/04/08 00:14:59;;;;;;;;;12.00;12.00;;;;;6.46;77.99;100413.63;5098770;28;9631;-59
2023/04/08 00:17:27;;;;;;;;;14.60;13.40;;;;;6.48;77.65;100423.19;5098886;28;8950;-60
2023/04/08 00:19:55;;;;;;;;;10.60;9.80;;;;;6.51;77.43;100419.53;5098415;28;8911;-60
2023/04/08 00:22:23;;;;;;;;;7.00;7.00;;;;;6.52;77.33;100415.94;5097628;28;8837;-60
2023/04/08 00:24:51;;;;;;;;;5.80;5.60;;;;;6.54;77.25;100414.88;5098301;28;8837;-59
2023/04/08 00:27:19;;;;;;;;;9.00;9.00;;;;;6.54;77.36;100412.25;5098202;28;8830;-58
2023/04/08 00:29:47;;;;;;;;;11.80;9.40;;;;;6.55;77.41;100421.91;5096299;28;8977;-59
2023/04/08 00:32:14;;;;;;;;;9.40;9.00;;;;;6.57;77.00;100422.66;5097136;28;8976;-61
2023/04/08 00:34:42;;;;;;;;;7.80;7.40;;;;;6.59;77.08;100426.06;5096912;28;8830;-59
2023/04/08 00:37:10;;;;;;;;;10.80;10.00;;;;;6.62;76.75;100422.41;5097578;28;8826;-58
2023/04/08 00:39:37;;;;;;;;;10.00;10.00;;;;;6.66;76.94;100426.59;5097993;28;8931;-60
2023/04/08 00:42:05;;;;;;;;;12.00;10.00;;;;;6.68;77.49;100424.72;5098122;28;8911;-61
2023/04/08 00:44:33;;;;;;;;;10.00;10.00;;;;;6.69;76.89;100429.06;5098159;28;9530;-61
2023/04/08 00:47:01;;;;;;;;;12.80;9.80;;;;;6.71;76.96;100425.41;5098459;28;8841;-60
2023/04/08 00:49:29;;;;;;;;;10.20;9.20;;;;;6.74;77.01;100432.31;5097853;28;8844;-61
2023/04/08 00:51:56;;;;;;;;;9.40;9.40;;;;;6.77;76.99;100434.78;5097885;28;8822;-60
2023/04/08 00:54:25;;;;;;;;;13.00;12.20;;;;;6.80;76.65;100437.25;5098339;28;9531;-59
2023/04/08 00:56:52;;;;;;;;;11.20;10.00;;;;;6.85;76.80;100435.19;5097923;28;8841;-60
2023/04/08 00:59:20;;;;;;;;;14.40;13.40;;;;;6.91;76.67;100445.44;5096326;28;8798;-58
2023/04/08 01:01:48;;;;;;;;;11.80;11.80;;;;;6.95;76.62;100436.38;5097210;28;8826;-58
2023/04/08 01:04:15;;;;;;;;;15.00;13.80;;;;;6.99;76.11;100440.56;5097058;28;8852;-59
2023/04/08 01:06:45;;;;;;;;;15.40;11.60;;;;;7.02;76.12;100429.78;5097090;28;8837;-59
2023/04/08 01:09:13;;;;;;;;;10.40;9.80;;;;;7.05;76.54;100440.22;5097099;28;8834;-59
2023/04/08 01:11:42;;;;;;;;;13.60;12.80;;;;;7.07;76.17;100444.50;5097398;28;8833;-58
2023/04/08 01:14:10;;;;;;;;;16.80;13.40;;;;;7.09;76.09;100442.59;5097442;28;8856;-59
2023/04/08 01:16:37;;;;;;;;;13.00;12.00;;;;;7.12;75.76;100442.41;5096799;28;8864;-58
2023/04/08 01:19:05;;;;;;;;;17.80;15.40;;;;;7.15;75.64;100433.44;5096690;28;9495;-61
2023/04/08 01:21:32;;;;;;;;;13.60;11.60;;;;;7.15;76.19;100434.31;5096988;28;8873;-58
2023/04/08 01:24:00;;;;;;;;;10.00;10.00;;;;;7.17;75.86;100434.22;5096913;28;8833;-58
2023/04/08 01:26:28;;;;;;;;;11.20;9.60;;;;;7.19;76.48;100440.28;5097052;28;8866;-61
2023/04/08 01:28:56;;;;;;;;;16.00;13.40;;;;;7.20;75.95;100436.69;5096481;28;8846;-58
2023/04/08 01:31:24;;;;;;;;;14.40;13.00;;;;;7.22;75.89;100437.44;5097269;28;8834;-61
2023/04/08 01:33:51;;;;;;;;;12.20;11.20;;;;;7.23;76.26;100431.22;5097311;28;8833;-59
2023/04/08 01:36:19;;;;;;;;;11.80;11.20;;;;;7.24;76.36;100438.22;5097528;28;8834;-59
2023/04/08 01:38:47;;;;;;;;;4.00;4.00;;;;;7.22;76.10;100430.38;5096541;28;8810;-61
2023/04/08 01:41:15;;;;;;;;;12.00;10.80;;;;;7.22;76.23;100430.38;5097266;28;8818;-61
2023/04/08 01:43:43;;;;;;;;;15.80;14.60;;;;;7.22;76.07;100432.16;5097415;28;8818;-60
2023/04/08 01:46:10;;;;;;;;;7.00;6.20;;;;;7.22;75.99;100437.44;5097162;28;8830;-59
2023/04/08 01:48:38;;;;;;;;;15.40;12.20;;;;;7.25;76.01;100434.63;5097135;28;8822;-58
2023/04/08 01:51:06;;;;;;;;;17.60;13.80;;;;;7.24;76.32;100438.22;5096916;28;8842;-58
2023/04/08 01:53:33;;;;;;;;;15.20;14.60;;;;;7.24;76.11;100435.56;5096854;28;8810;-59
2023/04/08 01:56:02;;;;;;;;;11.00;8.20;;;;;7.22;76.11;100445.41;5097009;28;8826;-61
2023/04/08 01:58:29;;;;;;;;;12.40;11.20;;;;;7.22;75.94;100443.63;5097137;28;9448;-61
2023/04/08 02:00:57;;;;;;;;;12.80;10.40;;;;;7.24;75.85;100443.50;5096740;28;8885;-61
2023/04/08 02:03:25;;;;;;;;;16.00;15.20;;;;;7.24;75.83;100444.38;5096906;28;8849;-60
2023/04/08 02:05:53;;;;;;;;;7.80;6.80;;;;;7.25;76.03;100442.56;5096130;28;8806;-60
2023/04/08 02:08:21;;;;;;;;;15.40;14.20;;;;;7.26;75.92;100444.25;5097195;28;8856;-60
2023/04/08 02:10:48;;;;;;;;;7.40;6.40;;;;;7.27;76.39;100446.00;5096835;28;8826;-61
2023/04/08 02:13:16;;;;;;;;;15.00;12.20;;;;;7.30;76.26;100445.81;5096639;28;8845;-60
2023/04/08 02:15:44;;;;;;;;;10.00;10.00;;;;;7.31;75.73;100442.22;5096720;28;8833;-59
2023/04/08 02:18:12;;;;;;;;;9.80;9.20;;;;;7.31;76.05;100451.03;5097071;28;8910;-61
2023/04/08 02:20:40;;;;;;;;;20.40;18.80;;;;;7.31;75.76;100445.72;5096682;28;8960;-60
2023/04/08 02:23:08;;;;;;;;;12.00;10.40;;;;;7.28;75.96;100442.41;5096727;28;8912;-61
2023/04/08 02:25:35;;;;;;;;;12.20;10.40;;;;;7.28;75.99;100450.34;5096488;28;8810;-60
2023/04/08 02:28:03;;;;;;;;;11.20;10.20;;;;;7.27;75.53;100456.59;5096688;28;8932;-58
2023/04/08 02:30:31;;;;;;;;;11.60;9.40;;;;;7.27;75.97;100456.59;5096537;28;8888;-58
2023/04/08 02:32:59;;;;;;;;;11.60;11.60;;;;;7.25;76.09;100453.16;5096578;28;8821;-59
2023/04/08 02:35:26;;;;;;;;;17.80;15.60;;;;;7.24;75.91;100454.09;5096562;28;8938;-58
2023/04/08 02:37:54;;;;;;;;;16.40;16.40;;;;;7.21;76.08;100449.00;5096407;28;8834;-57
2023/04/08 02:40:22;;;;;;;;;16.00;15.20;;;;;7.14;76.14;100440.53;5096559;28;8883;-59
2023/04/08 02:42:50;;;;;;;;;15.80;14.20;;;;;7.08;76.30;100445.34;5096274;28;8860;-60
2023/04/08 02:45:18;;;;;;;;;16.40;15.20;;;;;7.00;76.75;100448.44;5096525;28;8830;-59
2023/04/08 02:47:45;;;;;;;;;15.80;11.20;;;;;6.93;76.94;100449.72;5096466;28;8860;-61
2023/04/08 02:50:13;;;;;;;;;19.40;18.20;;;;;6.84;77.42;100449.38;5096292;28;8818;-61
2023/04/08 02:52:42;;;;;;;;;16.00;15.20;;;;;6.75;77.26;100450.75;5096057;28;8838;-59
2023/04/08 02:55:10;;;;;;;;;8.60;7.00;;;;;6.70;77.58;100454.59;5095880;28;8822;-60
2023/04/08 02:57:38;;;;;;;;;18.60;15.80;;;;;6.69;77.57;100461.66;5095699;28;8814;-60
2023/04/08 03:00:06;;;;;;;;;14.60;13.40;;;;;6.71;77.49;100465.09;5096021;28;8850;-58
2023/04/08 03:02:33;;;;;;;;;14.20;12.20;;;;;6.69;77.37;100459.00;5096214;28;8818;-58
2023/04/08 03:05:01;;;;;;;;;15.20;14.60;;;;;6.68;77.63;100459.13;5096402;28;8838;-59
2023/04/08 03:07:29;;;;;;;;;13.40;12.40;;;;;6.66;77.62;100464.50;5096059;28;8845;-58
2023/04/08 03:09:57;;;;;;;;;11.00;8.60;;;;;6.63;77.27;100458.50;5095763;28;8886;-59
2023/04/08 03:12:26;;;;;;;;;13.40;11.60;;;;;6.62;77.24;100467.41;5096261;28;9496;-58
2023/04/08 03:14:53;;;;;;;;;12.40;10.40;;;;;6.61;77.33;100465.69;5095997;28;8872;-58
2023/04/08 03:17:21;;;;;;;;;13.00;11.00;;;;;6.60;77.81;100469.28;5097973;28;8846;-58
2023/04/08 03:19:49;;;;;;;;;9.80;7.00;;;;;6.61;77.21;100473.63;5099921;28;8829;-58
2023/04/08 03:22:17;;;;;;;;;7.00;6.00;;;;;6.61;77.52;100469.16;5099861;28;8852;-58
2023/04/08 03:24:45;;;;;;;;;12.60;11.20;;;;;6.60;77.59;100471.91;5099973;28;8814;-58
2023/04/08 03:27:13;;;;;;;;;10.40;10.00;;;;;6.60;77.25;100470.09;5099690;28;8818;-58
2023/04/08 03:29:40;;;;;;;;;9.00;8.60;;;;;6.61;77.42;100470.97;5098796;28;8833;-59
2023/04/08 03:32:08;;;;;;;;;8.60;8.60;;;;;6.62;77.52;100475.31;5100107;28;9480;-57
2023/04/08 03:34:36;;;;;;;;;14.20;12.20;;;;;6.63;77.61;100477.03;5099818;28;8854;-58
2023/04/08 03:37:04;;;;;;;;;6.00;5.60;;;;;6.68;77.69;100477.66;5099488;28;8818;-58
2023/04/08 03:39:31;;;;;;;;;16.40;13.80;;;;;6.70;77.13;100479.28;5099188;28;8928;-58
2023/04/08 03:41:59;;;;;;;;;14.80;12.80;;;;;6.70;77.02;100473.09;5099248;28;8830;-58
2023/04/08 03:44:27;;;;;;;;;13.40;12.60;;;;;6.69;77.20;100474.06;5100464;28;8860;-58
2023/04/08 03:46:55;;;;;;;;;13.80;12.20;;;;;6.66;76.79;100468.94;5099666;28;8841;-59
2023/04/08 03:49:23;;;;;;;;;16.00;12.60;;;;;6.66;76.94;100468.94;5099638;28;8818;-58
2023/04/08 03:51:50;;;;;;;;;6.80;6.60;;;;;6.66;76.97;100468.94;5099541;28;8834;-58
2023/04/08 03:54:18;;;;;;;;;12.40;12.00;;;;;6.65;77.19;100473.38;5099171;28;8822;-58
2023/04/08 03:56:45;;;;;;;;;6.00;6.00;;;;;6.68;77.32;100477.66;5099651;28;8810;-58
2023/04/08 03:59:13;;;;;;;;;11.60;9.40;;;;;6.68;76.65;100472.34;5099662;28;8830;-59
2023/04/08 04:01:41;;;;;;;;;12.40;12.00;;;;;6.67;77.40;100475.94;5099316;28;8830;-59
2023/04/08 04:04:08;;;;;;;;;7.00;7.00;;;;;6.67;76.87;100478.59;5099149;28;8949;-58
2023/04/08 04:06:36;;;;;;;;;9.40;9.00;;;;;6.68;77.30;100475.84;5099204;28;8861;-58
2023/04/08 04:09:04;;;;;;;;;10.00;9.60;;;;;6.66;77.16;100474.25;5099182;28;8802;-59
2023/04/08 04:11:32;;;;;;;;;12.80;9.80;;;;;6.63;76.51;100467.31;5098975;28;9519;-60
2023/04/08 04:14:00;;;;;;;;;13.20;13.20;;;;;6.61;76.94;100477.09;5099100;28;8814;-58
2023/04/08 04:16:28;;;;;;;;;12.40;12.00;;;;;6.59;77.16;100470.22;5099022;28;8846;-58
2023/04/08 04:18:59;;;;;;;;;12.40;10.40;;;;;6.54;77.12;100475.72;5098937;28;8830;-58
2023/04/08 04:21:27;;;;;;;;;13.00;12.40;;;;;6.49;76.72;100471.63;5098958;28;8814;-58
2023/04/08 04:23:55;;;;;;;;;10.00;9.40;;;;;6.44;77.18;100471.06;5098367;28;8814;-59
2023/04/08 04:26:22;;;;;;;;;9.60;9.40;;;;;6.40;77.67;100477.44;5099172;28;9496;-58
2023/04/08 04:28:50;;;;;;;;;11.20;10.00;;;;;6.38;77.51;100479.31;5098077;28;8830;-58
2023/04/08 04:31:18;;;;;;;;;8.20;8.20;;;;;6.37;77.30;100485.53;5098824;28;8842;-58
2023/04/08 04:33:46;;;;;;;;;11.00;9.20;;;;;6.34;77.81;100485.69;5098905;28;8883;-57
2023/04/08 04:36:14;;;;;;;;;12.20;10.00;;;;;6.33;77.26;100491.91;5098754;28;8822;-58
2023/04/08 04:38:42;;;;;;;;;15.40;13.00;;;;;6.30;77.22;100492.94;5098363;28;8842;-59
2023/04/08 04:41:10;;;;;;;;;14.20;12.60;;;;;6.29;77.14;100495.69;5098967;28;8802;-58
2023/04/08 04:43:38;;;;;;;;;10.40;10.00;;;;;6.28;77.63;100497.47;5098055;28;8817;-58
2023/04/08 04:46:07;;;;;;;;;13.80;12.20;;;;;6.27;78.03;100494.88;5097754;28;8841;-59
2023/04/08 04:48:35;;;;;;;;;13.00;11.60;;;;;6.26;77.36;100496.69;5098603;28;8948;-58
2023/04/08 04:51:03;;;;;;;;;11.00;9.20;;;;;6.28;77.41;100499.22;5098004;28;8857;-58
2023/04/08 04:53:31;;;;;;;;;4.00;4.00;;;;;6.27;77.42;100495.75;5097806;28;8810;-59
2023/04/08 04:56:00;;;;;;;;;9.60;9.60;;;;;6.27;77.03;100498.41;5097868;28;8838;-58
2023/04/08 04:58:28;;;;;;;;;12.00;10.00;;;;;6.25;77.65;100494.13;5098004;28;8838;-58
2023/04/08 05:00:56;;;;;;;;;7.80;7.80;;;;;6.23;77.70;100496.84;5098373;28;8834;-58
2023/04/08 05:03:24;;;;;;;;;9.40;9.20;;;;;6.22;77.33;100503.06;5098271;28;8854;-59
2023/04/08 05:05:52;;;;;;;;;9.60;8.60;;;;;6.19;77.68;100500.59;5097876;28;8818;-58
2023/04/08 05:08:20;;;;;;;;;10.00;9.00;;;;;6.18;77.11;100500.66;5098197;28;9492;-58
2023/04/08 05:10:48;;;;;;;;;9.80;9.00;;;;;6.17;77.52;100506.91;5097884;28;8841;-60
2023/04/08 05:13:17;;;;;;;;;7.80;6.40;;;;;6.16;77.65;100510.47;5098075;28;8818;-60
2023/04/08 05:15:45;;;;;;;;;6.40;6.40;;;;;6.15;77.39;100509.59;5097395;28;8822;-58
2023/04/08 05:18:13;;;;;;;;;6.40;6.40;;;;;6.18;77.41;100516.53;5097752;28;8860;-58
2023/04/08 05:20:40;;;;;;;;;8.60;7.40;;;;;6.22;77.46;100523.38;5097325;28;8834;-58
2023/04/08 05:23:08;;;;;;;;;9.80;9.00;;;;;6.24;77.32;100524.16;5097289;28;9494;-59
2023/04/08 05:25:36;;;;;;;;;10.60;8.80;;;;;6.26;77.07;100524.91;5097394;28;8830;-60
2023/04/08 05:28:04;;;;;;;;;8.20;8.20;;;;;6.27;77.22;100516.91;5097095;28;8964;-58
2023/04/08 05:30:31;;;;;;;;;9.80;9.40;;;;;6.28;76.77;100528.31;5097336;28;8834;-58
2023/04/08 05:32:59;;;;;;;;;7.00;7.00;;;;;6.29;77.03;100533.53;5097480;28;8854;-58
2023/04/08 05:35:27;;;;;;;;;10.00;9.00;;;;;6.31;77.08;100525.53;5097576;28;8814;-58
2023/04/08 05:37:55;;;;;;;;;6.20;5.20;;;;;6.32;77.17;100530.75;5097158;28;8947;-58
2023/04/08 05:40:23;;;;;;;;;9.00;7.40;;;;;6.36;77.25;100528.81;5096078;28;8836;-59
2023/04/08 05:42:51;;;;;;;;;3.80;3.80;;;;;6.38;77.01;100527.75;5097486;28;8841;-59
2023/04/08 05:45:19;;;;;;;;;9.80;8.60;;;;;6.40;77.19;100527.69;5097173;28;9484;-59
2023/04/08 05:47:47;;;;;;;;;8.60;7.40;;;;;6.39;76.93;100523.34;5097194;28;8826;-58
2023/04/08 05:50:15;;;;;;;;;7.40;6.40;;;;;6.40;76.92;100530.34;5096974;28;8821;-58
2023/04/08 05:52:43;;;;;;;;;3.40;2.60;;;;;6.41;76.82;100532.03;5096482;28;8834;-58
2023/04/08 05:55:11;;;;;;;;;6.60;6.60;;;;;6.45;76.35;100541.53;5097031;28;9606;-58
2023/04/08 05:57:39;;;;;;;;;8.00;8.00;;;;;6.49;76.34;100546.56;5096789;28;8834;-58
2023/04/08 06:00:07;;;;;;;;;9.80;6.00;;;;;6.54;76.71;100544.50;5096597;28;8835;-58
2023/04/08 06:02:35;;;;;;;;;9.00;7.80;;;;;6.56;76.56;100545.31;5097096;28;9583;-58
2023/04/08 06:05:03;;;;;;;;;3.20;3.00;;;;;6.58;76.23;100556.66;5096772;28;8818;-59
2023/04/08 06:07:31;;;;;;;;;6.60;6.60;;;;;6.60;76.00;100552.13;5096659;28;8810;-61
2023/04/08 06:09:59;;;;;;;;;6.60;6.00;;;;;6.62;76.58;100558.22;5096643;28;8832;-61
2023/04/08 06:12:26;;;;;;;;;7.40;6.80;;;;;6.64;76.41;100560.75;5097044;28;9488;-58
2023/04/08 06:14:54;;;;;;;;;4.00;4.00;;;;;6.64;76.73;100563.41;5096827;28;8825;-59
2023/04/08 06:17:22;;;;;;;;;4.80;4.80;;;;;6.64;76.15;100563.41;5095912;28;8822;-58
2023/04/08 06:19:51;;;;;;;;;8.80;7.20;;;;;6.67;76.12;100572.03;5094817;28;8802;-58
2023/04/08 06:22:19;;;;;;;;;5.60;4.80;;;;;6.71;76.49;100573.59;5096312;28;8821;-59
2023/04/08 06:24:47;;;;;;;;;6.80;6.60;;;;;6.79;76.30;100578.47;5096022;28;8833;-60
2023/04/08 06:27:15;;;;;;;;;7.40;6.60;;;;;6.87;76.00;100589.47;5095816;28;8879;-60
2023/04/08 06:29:42;;;;;;;;;3.40;3.40;;;;;6.92;75.98;100584.81;5095082;28;8841;-59
2023/04/08 06:32:10;;;;;;;;;9.00;7.00;;;;;6.97;75.90;100583.59;5095341;28;8830;-61
2023/04/08 06:34:38;;;;;;;;;10.00;9.80;;;;;7.02;75.77;100583.34;5095567;28;8814;-61
2023/04/08 06:37:06;;;;;;;;;3.00;3.00;;;;;7.05;75.70;100588.50;5095012;28;8849;-58
2023/04/08 06:39:34;;;;;;;;;11.60;9.80;;;;;7.08;75.48;100588.31;5094906;28;8845;-58
2023/04/08 06:42:02;;;;;;;;;7.40;6.00;;;;;7.11;75.79;100577.53;5095060;28;8822;-57
2023/04/08 06:44:30;;;;;;;;;12.20;10.40;;;;;7.15;75.87;100589.69;5095248;28;8842;-59
2023/04/08 06:46:57;;;;;;;;;7.00;6.20;;;;;7.16;75.24;100581.66;5095315;28;8829;-58
2023/04/08 06:49:26;;;;;;;;;7.80;7.20;;;;;7.18;75.66;100589.50;5094410;28;8825;-58
2023/04/08 06:51:54;;;;;;;;;9.60;9.20;;;;;7.21;75.90;100589.34;5094692;28;9500;-59
2023/04/08 06:54:22;;;;;;;;;7.20;6.40;;;;;7.21;75.69;100586.72;5094708;28;8806;-57
2023/04/08 06:56:51;;;;;;;;;4.80;3.80;;;;;7.23;75.62;100585.69;5094885;28;8858;-58
2023/04/08 06:59:19;;;;;;;;;8.60;7.00;;;;;7.25;75.37;100594.41;5094919;28;8854;-58
2023/04/08 07:01:47;;;;;;;;;13.80;12.40;;;;;7.25;75.57;100594.41;5095150;28;8806;-59
2023/04/08 07:04:16;;;;;;;;;9.20;7.00;;;;;7.26;75.96;100604.03;5095181;28;8813;-60
2023/04/08 07:06:44;;;;;;;;;11.20;9.40;;;;;7.29;75.24;100603.84;5094019;28;8837;-58
2023/04/08 07:09:12;;;;;;;;;13.20;12.00;;;;;7.34;75.46;100608.94;5093606;28;8853;-58
2023/04/08 07:11:40;;;;;;;;;11.80;9.40;;;;;7.44;75.33;100616.25;5093510;28;8837;-59
2023/04/08 07:14:07;;;;;;;;;3.00;3.00;;;;;7.54;74.88;100619.25;5093957;28;8860;-61
2023/04/08 07:16:35;;;;;;;;;11.60;11.20;;;;;7.63;75.18;100613.41;5094112;28;8830;-60
2023/04/08 07:19:03;;;;;;;;;12.80;11.60;;;;;7.73;74.93;100605.72;5093930;28;8891;-59
2023/04/08 07:21:31;;;;;;;;;14.20;12.60;;;;;7.78;74.89;100614.28;5094753;28;9511;-59
2023/04/08 07:23:59;;;;;;;;;14.60;13.80;;;;;7.82;74.58;100615.78;5094695;28;8826;-58
2023/04/08 07:26:27;;;;;;;;;12.60;12.60;;;;;7.86;74.68;100609.38;5095305;28;8860;-58
2023/04/08 07:28:55;;;;;;;;;12.00;9.00;;;;;7.91;74.54;100615.25;5094942;28;8872;-59
2023/04/08 07:31:23;;;;;;;;;16.80;16.80;;;;;7.99;74.34;100615.66;5095012;28;8862;-58
2023/04/08 07:33:50;;;;;;;;;15.80;13.00;;;;;8.07;74.12;100625.84;5094666;28;8830;-58
2023/04/08 07:36:18;;;;;;;;;9.40;6.60;;;;;8.10;74.83;100626.50;5095355;28;8817;-60
2023/04/08 07:38:46;;;;;;;;;18.60;17.20;;;;;8.12;74.42;100629.91;5095125;28;8818;-59
2023/04/08 07:41:14;;;;;;;;;13.00;10.80;;;;;8.09;74.52;100630.13;5095377;28;8818;-58
2023/04/08 07:43:42;;;;;;;;;14.80;11.60;;;;;8.10;74.61;100631.81;5094716;28;8833;-58
2023/04/08 07:46:10;;;;;;;;;18.80;17.20;;;;;8.17;74.55;100638.47;5093877;28;8915;-58
2023/04/08 07:48:38;;;;;;;;;21.80;18.80;;;;;8.22;74.44;100641.72;5093155;28;8834;-59
2023/04/08 07:51:06;;;;;;;;;15.60;14.20;;;;;8.28;75.04;100651.16;5093900;28;8850;-61
2023/04/08 07:53:37;;;;;;;;;18.60;18.20;;;;;8.28;74.37;100651.97;5093970;28;8850;-59
2023/04/08 07:56:05;;;;;;;;;18.80;17.60;;;;;8.35;74.42;100645.38;5093550;28;8826;-58
2023/04/08 07:58:33;;;;;;;;;16.80;16.40;;;;;8.45;73.93;100648.34;5093604;28;8834;-61
2023/04/08 08:01:01;;;;;;;;;15.80;15.00;;;;;8.52;74.30;100642.56;5093994;28;8873;-62
2023/04/08 08:03:29;;;;;;;;;21.80;18.80;;;;;8.55;74.07;100647.69;5094050;28;8830;-59
2023/04/08 08:06:00;;;;;;;;;12.40;12.40;;;;;8.61;73.88;100647.34;5097443;28;8799;-60
2023/04/08 08:08:28;;;;;;;;;14.20;13.00;;;;;8.63;73.94;100647.22;5098046;28;8849;-60
2023/04/08 08:10:57;;;;;;;;;18.00;17.20;;;;;8.63;73.52;100649.88;5097368;28;8840;-60
2023/04/08 08:13:25;;;;;;;;;18.00;14.60;;;;;8.63;73.45;100660.50;5097233;28;8849;-61
2023/04/08 08:15:53;;;;;;;;;16.00;15.20;;;;;8.59;74.27;100657.16;5097354;28;8868;-61
2023/04/08 08:18:21;;;;;;;;;18.00;15.40;;;;;8.58;74.32;100665.25;5097637;28;9527;-59
2023/04/08 08:20:49;;;;;;;;;13.80;12.20;;;;;8.57;74.30;100659.06;5097284;28;8821;-60
2023/04/08 08:23:17;;;;;;;;;17.20;16.40;;;;;8.60;74.15;100661.53;5097012;28;8854;-61
2023/04/08 08:25:44;;;;;;;;;20.20;18.00;;;;;8.65;74.05;100658.63;5097016;28;8829;-61
2023/04/08 08:28:12;;;;;;;;;16.00;14.60;;;;;8.69;73.98;100665.44;5096941;28;8814;-61
2023/04/08 08:30:40;;;;;;;;;15.60;14.40;;;;;8.71;74.13;100669.72;5097903;28;8826;-58
2023/04/08 08:33:08;;;;;;;;;9.00;9.00;;;;;8.77;73.77;100682.63;5097045;28;8859;-61
2023/04/08 08:35:36;;;;;;;;;18.60;17.20;;;;;8.83;73.89;100684.88;5096353;28;8818;-61
2023/04/08 08:38:04;;;;;;;;;20.20;17.80;;;;;8.90;73.04;100688.03;5096527;28;8821;-60
2023/04/08 08:40:31;;;;;;;;;13.80;13.80;;;;;8.96;73.42;100683.19;5096523;28;8966;-59
2023/04/08 08:43:00;;;;;;;;;17.60;17.20;;;;;8.99;73.46;100687.47;5096506;28;8847;-59
2023/04/08 08:45:28;;;;;;;;;18.20;15.40;;;;;8.97;73.29;100679.59;5096437;28;8925;-59
2023/04/08 08:47:56;;;;;;;;;22.40;19.60;;;;;8.92;73.30;100684.34;5096504;28;8842;-61
2023/04/08 08:50:24;;;;;;;;;18.80;17.60;;;;;8.87;73.75;100678.47;5096489;28;8818;-59
2023/04/08 08:52:51;;;;;;;;;18.40;16.40;;;;;8.83;73.79;100686.72;5096214;28;8830;-62
2023/04/08 08:55:20;;;;;;;;;11.50;10.00;;;;;8.79;73.97;100679.84;5095257;28;8842;-61
2023/04/08 08:58:08;;;;;;;;;16.00;16.00;;;;;8.78;73.85;100696.75;5095994;28;8854;-61
2023/04/08 09:00:36;;;;;;;;;21.00;20.00;;;;;8.75;74.04;100689.81;5095401;28;9531;-59
2023/04/08 09:03:04;;;;;;;;;19.00;18.40;;;;;8.73;74.28;100698.84;5094543;28;8856;-59
2023/04/08 09:05:32;;;;;;;;;14.00;12.60;;;;;8.71;74.24;100692.75;5094025;28;8830;-60
2023/04/08 09:08:00;;;;;;;;;23.60;21.60;;;;;8.71;73.96;100695.41;5095444;28;8826;-60
2023/04/08 09:10:29;;;;;;;;;19.00;19.00;;;;;8.72;74.00;100703.28;5095177;28;8834;-61
2023/04/08 09:12:56;;;;;;;;;17.60;14.80;;;;;8.74;74.12;100698.72;5095214;28;8829;-60
2023/04/08 09:15:24;;;;;;;;;21.60;20.80;;;;;8.80;73.42;100693.06;5095339;28;8918;-60
2023/04/08 09:17:52;;;;;;;;;18.00;15.60;;;;;8.86;73.76;100698.00;5096051;28;8987;-59
2023/04/08 09:20:20;;;;;;;;;10.00;10.00;;;;;8.92;73.60;100697.63;5095999;28;8834;-60
2023/04/08 09:22:48;;;;;;;;;18.40;16.80;;;;;9.00;73.49;100700.69;5095628;28;8810;-59
2023/04/08 09:25:16;;;;;;;;;20.80;17.40;;;;;9.08;73.54;100703.72;5096336;28;8830;-58
2023/04/08 09:27:43;;;;;;;;;14.60;13.00;;;;;9.18;73.32;100702.19;5096457;28;8822;-59
2023/04/08 09:30:11;;;;;;;;;15.80;14.60;;;;;9.21;73.55;100707.34;5096251;28;8862;-60
2023/04/08 09:32:39;;;;;;;;;18.00;16.80;;;;;9.20;73.12;100707.41;5096531;28;8841;-60
2023/04/08 09:35:07;;;;;;;;;9.40;9.40;;;;;9.17;73.42;100708.47;5096371;28;8855;-58
2023/04/08 09:37:36;;;;;;;;;12.60;12.60;;;;;9.18;73.38;100719.97;5096536;28;8841;-59
2023/04/08 09:40:04;;;;;;;;;15.75;15.75;;;;;9.18;73.14;100715.47;5096274;28;8912;-60
2023/04/08 09:42:32;;;;;;;;;15.75;15.25;;;;;9.19;73.50;100722.50;5096332;28;8915;-61
2023/04/08 09:45:00;;;;;;;;;9.50;9.00;;;;;9.19;73.34;100721.66;5094629;28;8822;-59
2023/04/08 09:47:28;;;;;;;;;13.00;12.50;;;;;9.17;73.54;100718.22;5094924;28;9855;-59
2023/04/08 09:49:56;;;;;;;;;14.00;13.00;;;;;9.14;73.13;100724.59;5094393;28;8898;-59
2023/04/08 09:52:24;;;;;;;;;15.00;12.50;;;;;9.11;73.73;100719.47;5093337;28;8826;-60
2023/04/08 09:54:52;;;;;;;;;13.00;12.50;;;;;9.13;73.32;100722.03;5092785;28;8840;-58
2023/04/08 09:57:20;;;;;;;;;14.00;13.50;;;;;9.18;73.18;100723.44;5092973;28;8870;-60
2023/04/08 09:59:47;;;;;;;;;14.50;13.00;;;;;9.24;73.05;100719.56;5093636;28;8858;-59
2023/04/08 10:02:15;;;;;;;;;11.50;10.00;;;;;9.29;72.94;100728.97;5093727;28;8822;-59
2023/04/08 10:04:43;;;;;;;;;12.50;11.75;;;;;9.31;73.19;100732.38;5093870;28;8826;-59
2023/04/08 10:07:11;;;;;;;;;13.00;12.33;;;;;9.35;73.16;100728.56;5093022;28;8817;-60
2023/04/08 10:09:41;;;;;;;;;15.25;13.00;;;;;9.41;73.12;100728.19;5092931;28;9620;-58
2023/04/08 10:12:10;;;;;;;;;13.50;12.50;;;;;9.46;72.41;100720.78;5094435;28;8822;-61
2023/04/08 10:14:37;;;;;;;;;15.50;13.00;;;;;9.54;72.79;100730.94;5094913;28;8822;-59
2023/04/08 10:17:05;;;;;;;;;17.25;16.00;;;;;9.63;72.05;100727.72;5093831;28;8848;-61
2023/04/08 10:19:34;;;;;;;;;8.50;6.75;;;;;9.73;72.37;100728.84;5093682;28;8986;-59
2023/04/08 10:22:02;;;;;;;;;12.25;10.50;;;;;9.82;71.74;100723.78;5093450;28;8952;-61
2023/04/08 10:24:30;;;;;;;;;14.25;13.50;;;;;9.86;72.11;100733.25;5092925;28;8825;-60
2023/04/08 10:26:58;;;;;;;;;13.50;12.75;;;;;9.89;71.65;100734.88;5091628;28;8833;-60
2023/04/08 10:29:26;;;;;;;;;13.50;13.00;;;;;9.94;71.75;100730.13;5072411;28;8820;-59
2023/04/08 10:31:54;;;;;;;;;15.00;13.00;;;;;9.98;71.67;100724.50;5072973;28;8836;-61
2023/04/08 10:34:23;;;;;;;;;12.75;12.00;;;;;9.99;71.82;100728.88;5073182;28;8852;-61
2023/04/08 10:36:52;;;;;;;;;12.50;12.00;;;;;10.00;71.57;100725.25;5073389;28;8828;-61
2023/04/08 10:39:20;;;;;;;;;15.00;12.25;;;;;10.03;71.14;100725.06;5073850;28;9008;-62
2023/04/08 10:41:48;;;;;;;;;9.50;9.00;;;;;10.09;71.46;100721.19;5074713;28;8958;-59
2023/04/08 10:44:17;;;;;;;;;14.25;14.00;;;;;10.16;71.36;100711.84;5074416;28;8820;-59
2023/04/08 10:46:44;;;;;;;;;13.50;10.50;;;;;10.28;71.26;100711.91;5076570;28;8846;-59
2023/04/08 10:49:12;;;;;;;;;15.50;14.25;;;;;10.44;70.64;100709.03;5093809;28;8841;-59
2023/04/08 10:51:41;;;;;;;;;13.00;12.25;;;;;10.70;70.52;100701.00;5093759;28;8983;-62
2023/04/08 10:54:09;;;;;;;;;12.50;12.50;;;;;10.93;69.77;100700.28;5093422;28;8846;-58
2023/04/08 10:56:37;;;;;;;;;13.00;12.25;;;;;11.06;69.72;100706.47;5093507;28;8934;-59
2023/04/08 10:59:05;;;;;;;;;12.50;11.00;;;;;11.15;69.40;100713.84;5093547;28;8822;-60
2023/04/08 11:01:33;;;;;;;;;14.75;12.25;;;;;11.14;69.73;100711.28;5093086;28;8840;-60
2023/04/08 11:04:01;;;;;;;;;15.50;15.00;;;;;11.04;69.45;100715.53;5092933;28;8846;-59
2023/04/08 11:06:31;;;;;;;;;15.00;13.25;;;;;10.90;70.21;100711.16;5092666;28;8830;-59
2023/04/08 11:09:00;;;;;;;;;16.00;15.00;;;;;10.79;69.99;100708.41;5092924;28;8960;-58
2023/04/08 11:11:28;;;;;;;;;11.00;11.00;;;;;10.79;70.53;100712.84;5092553;28;8852;-59
2023/04/08 11:13:56;;;;;;;;;13.50;13.00;;;;;10.84;70.27;100711.59;5092327;28;9602;-59
2023/04/08 11:16:25;;;;;;;;;14.50;13.00;;;;;10.88;70.03;100710.44;5092475;28;8834;-58
2023/04/08 11:18:53;;;;;;;;;15.25;12.50;;;;;10.98;70.04;100706.16;5091916;28;9539;-59
2023/04/08 11:21:22;;;;;;;;;12.75;12.00;;;;;11.10;69.34;100709.78;5091415;28;8810;-57
2023/04/08 11:23:50;;;;;;;;;14.75;12.50;;;;;11.16;69.60;100707.53;5091613;28;9523;-58
2023/04/08 11:26:20;;;;;;;;;14.25;12.50;;;;;11.23;68.98;100707.97;5092138;28;8834;-61
2023/04/08 11:28:50;;;;;;;;;17.00;16.75;;;;;11.21;68.95;100704.56;5091375;28;8844;-58
2023/04/08 11:31:18;;;;;;;;;18.00;15.00;;;;;11.23;69.23;100702.66;5091771;28;8861;-58